sensor_id;sensor_type;location;lat;lon;timestamp;pressure;altitude;pressure_sealevel;temperature;humidity
7730;BME280;3908;52.310;7.230;2022-10-31T00:02:13;51454.13;;;-145.83;100.00
7730;BME280;3908;52.310;7.230;2022-10-31T00:05:00;51465.88;;;-145.83;100.00
7730;BME280;3908;52.310;7.230;2022-10-31T00:07:47;51505.00;;;-145.83;100.00
7730;BME280;3908;52.310;7.230;2022-10-31T00:10:38;51489.34;;;-145.83;100.00
7730;BME280;3908;52.310;7.230;2022-10-31T00:13:25;51452.19;;;-145.83;100.00
7730;BME280;3908;52.310;7.230;2022-10-31T00:16:13;51450.22;;;-145.83;100.00
7730;BME280;3908;52.310;7.230;2022-10-31T00:19:04;51446.31;;;-145.83;100.00
7730;BME280;3908;52.310;7.230;2022-10-31T00:21:52;51475.66;;;-145.83;100.00
7730;BME280;3908;52.310;7.230;2022-10-31T00:24:39;51479.56;;;-145.83;100.00
7730;BME280;3908;52.310;7.230;2022-10-31T00:27:26;51456.09;;;-145.83;100.00
7730;BME280;3908;52.310;7.230;2022-10-31T00:30:13;51458.06;;;-145.83;100.00
7730;BME280;3908;52.310;7.230;2022-10-31T00:33:00;51442.41;;;-145.83;100.00
7730;BME280;3908;52.310;7.230;2022-10-31T00:35:50;51467.84;;;-145.83;100.00
7730;BME280;3908;52.310;7.230;2022-10-31T00:38:37;51416.97;;;-145.83;100.00
7730;BME280;3908;52.310;7.230;2022-10-31T00:41:25;51450.22;;;-145.83;100.00
7730;BME280;3908;52.310;7.230;2022-10-31T00:44:11;51436.53;;;-145.83;100.00
7730;BME280;3908;52.310;7.230;2022-10-31T00:46:58;51489.34;;;-145.83;100.00
7730;BME280;3908;52.310;7.230;2022-10-31T00:49:45;51475.66;;;-145.83;100.00
7730;BME280;3908;52.310;7.230;2022-10-31T00:52:34;51448.28;;;-145.83;100.00
7730;BME280;3908;52.310;7.230;2022-10-31T00:55:21;51405.22;;;-145.83;100.00
7730;BME280;3908;52.310;7.230;2022-10-31T00:58:08;51460.00;;;-145.83;100.00
7730;BME280;3908;52.310;7.230;2022-10-31T01:00:55;51469.78;;;-145.83;100.00
7730;BME280;3908;52.310;7.230;2022-10-31T01:03:42;51450.22;;;-145.83;100.00
7730;BME280;3908;52.310;7.230;2022-10-31T01:06:28;51446.31;;;-145.83;100.00
7730;BME280;3908;52.310;7.230;2022-10-31T01:09:17;51481.53;;;-145.83;100.00
7730;BME280;3908;52.310;7.230;2022-10-31T01:12:04;51460.00;;;-145.83;100.00
7730;BME280;3908;52.310;7.230;2022-10-31T01:14:51;51477.63;;;-145.83;100.00
7730;BME280;3908;52.310;7.230;2022-10-31T01:17:39;51460.00;;;-145.83;100.00
7730;BME280;3908;52.310;7.230;2022-10-31T01:20:26;51446.31;;;-145.83;100.00
7730;BME280;3908;52.310;7.230;2022-10-31T01:23:13;51428.72;;;-145.83;100.00
7730;BME280;3908;52.310;7.230;2022-10-31T01:26:07;51446.31;;;-145.83;100.00
7730;BME280;3908;52.310;7.230;2022-10-31T01:28:56;51458.06;;;-145.83;100.00
7730;BME280;3908;52.310;7.230;2022-10-31T01:31:43;51448.28;;;-145.83;100.00
7730;BME280;3908;52.310;7.230;2022-10-31T01:34:30;51444.34;;;-145.83;100.00
7730;BME280;3908;52.310;7.230;2022-10-31T01:37:17;51454.13;;;-145.83;100.00
7730;BME280;3908;52.310;7.230;2022-10-31T01:40:05;51450.22;;;-145.83;100.00
7730;BME280;3908;52.310;7.230;2022-10-31T01:42:54;51461.97;;;-145.83;100.00
7730;BME280;3908;52.310;7.230;2022-10-31T01:45:41;51460.00;;;-145.83;100.00
7730;BME280;3908;52.310;7.230;2022-10-31T01:48:30;51454.13;;;-145.83;100.00
7730;BME280;3908;52.310;7.230;2022-10-31T01:51:20;51418.94;;;-145.83;100.00
7730;BME280;3908;52.310;7.230;2022-10-31T01:54:12;51430.66;;;-145.83;100.00
7730;BME280;3908;52.310;7.230;2022-10-31T01:57:02;51456.09;;;-145.83;100.00
7730;BME280;3908;52.310;7.230;2022-10-31T01:59:55;51395.44;;;-145.83;100.00
7730;BME280;3908;52.310;7.230;2022-10-31T02:02:44;51467.84;;;-145.83;100.00
7730;BME280;3908;52.310;7.230;2022-10-31T02:05:32;51458.06;;;-145.83;100.00
7730;BME280;3908;52.310;7.230;2022-10-31T02:08:23;51456.09;;;-145.83;100.00
7730;BME280;3908;52.310;7.230;2022-10-31T02:11:12;51497.19;;;-145.83;100.00
7730;BME280;3908;52.310;7.230;2022-10-31T02:14:00;51458.06;;;-145.83;100.00
7730;BME280;3908;52.310;7.230;2022-10-31T02:16:49;51450.22;;;-145.83;100.00
7730;BME280;3908;52.310;7.230;2022-10-31T02:19:41;51387.63;;;-145.83;100.00
7730;BME280;3908;52.310;7.230;2022-10-31T02:22:40;51452.19;;;-145.83;100.00
7730;BME280;3908;52.310;7.230;2022-10-31T02:25:47;51461.97;;;-145.83;100.00
7730;BME280;3908;52.310;7.230;2022-10-31T02:28:56;51442.41;;;-145.83;100.00
7730;BME280;3908;52.310;7.230;2022-10-31T02:31:55;51440.44;;;-145.83;100.00
7730;BME280;3908;52.310;7.230;2022-10-31T02:34:51;51448.28;;;-145.83;100.00
7730;BME280;3908;52.310;7.230;2022-10-31T02:37:45;51440.44;;;-145.83;100.00
7730;BME280;3908;52.310;7.230;2022-10-31T02:40:36;51450.22;;;-145.83;100.00
7730;BME280;3908;52.310;7.230;2022-10-31T02:43:31;51446.31;;;-145.83;100.00
7730;BME280;3908;52.310;7.230;2022-10-31T02:46:24;51479.56;;;-145.83;100.00
7730;BME280;3908;52.310;7.230;2022-10-31T02:49:22;51450.22;;;-145.83;100.00
7730;BME280;3908;52.310;7.230;2022-10-31T02:52:17;51460.00;;;-145.83;100.00
7730;BME280;3908;52.310;7.230;2022-10-31T02:55:39;51475.66;;;-145.83;100.00
7730;BME280;3908;52.310;7.230;2022-10-31T02:58:21;51442.41;;;-145.83;100.00
7730;BME280;3908;52.310;7.230;2022-10-31T03:01:26;51428.72;;;-145.83;100.00
7730;BME280;3908;52.310;7.230;2022-10-31T03:04:40;51436.53;;;-145.83;100.00
7730;BME280;3908;52.310;7.230;2022-10-31T03:07:36;51446.31;;;-145.83;100.00
7730;BME280;3908;52.310;7.230;2022-10-31T03:10:33;51440.44;;;-145.83;100.00
7730;BME280;3908;52.310;7.230;2022-10-31T03:13:25;51458.06;;;-145.83;100.00
7730;BME280;3908;52.310;7.230;2022-10-31T03:16:22;51424.78;;;-145.83;100.00
7730;BME280;3908;52.310;7.230;2022-10-31T03:19:14;51416.97;;;-145.83;100.00
7730;BME280;3908;52.310;7.230;2022-10-31T03:22:07;51452.19;;;-145.83;100.00
7730;BME280;3908;52.310;7.230;2022-10-31T03:24:57;51448.28;;;-145.83;100.00
7730;BME280;3908;52.310;7.230;2022-10-31T03:27:47;51448.28;;;-145.83;100.00
7730;BME280;3908;52.310;7.230;2022-10-31T03:30:37;51477.63;;;-145.83;100.00
7730;BME280;3908;52.310;7.230;2022-10-31T03:33:28;51444.34;;;-145.83;100.00
7730;BME280;3908;52.310;7.230;2022-10-31T03:36:16;51420.88;;;-145.83;100.00
7730;BME280;3908;52.310;7.230;2022-10-31T03:39:08;51418.94;;;-145.83;100.00
7730;BME280;3908;52.310;7.230;2022-10-31T03:42:00;51415.00;;;-145.83;100.00
7730;BME280;3908;52.310;7.230;2022-10-31T03:44:53;51448.28;;;-145.83;100.00
7730;BME280;3908;52.310;7.230;2022-10-31T03:47:43;51463.91;;;-145.83;100.00
7730;BME280;3908;52.310;7.230;2022-10-31T03:50:39;51391.53;;;-145.83;100.00
7730;BME280;3908;52.310;7.230;2022-10-31T03:53:31;51446.31;;;-145.83;100.00
7730;BME280;3908;52.310;7.230;2022-10-31T03:56:24;51434.56;;;-145.83;100.00
7730;BME280;3908;52.310;7.230;2022-10-31T03:59:18;51418.94;;;-145.83;100.00
7730;BME280;3908;52.310;7.230;2022-10-31T04:02:19;51434.56;;;-145.83;100.00
7730;BME280;3908;52.310;7.230;2022-10-31T04:05:09;51477.63;;;-145.83;100.00
7730;BME280;3908;52.310;7.230;2022-10-31T04:07:58;51450.22;;;-145.83;100.00
7730;BME280;3908;52.310;7.230;2022-10-31T04:10:49;51450.22;;;-145.83;100.00
7730;BME280;3908;52.310;7.230;2022-10-31T04:13:39;51440.44;;;-145.83;100.00
7730;BME280;3908;52.310;7.230;2022-10-31T04:16:27;51458.06;;;-145.83;100.00
7730;BME280;3908;52.310;7.230;2022-10-31T04:19:14;51436.53;;;-145.83;100.00
7730;BME280;3908;52.310;7.230;2022-10-31T04:22:01;51440.44;;;-145.83;100.00
7730;BME280;3908;52.310;7.230;2022-10-31T04:24:48;51436.53;;;-145.83;100.00
7730;BME280;3908;52.310;7.230;2022-10-31T04:27:35;51438.50;;;-145.83;100.00
7730;BME280;3908;52.310;7.230;2022-10-31T04:30:24;51440.44;;;-145.83;100.00
7730;BME280;3908;52.310;7.230;2022-10-31T04:33:11;51409.16;;;-145.83;100.00
7730;BME280;3908;52.310;7.230;2022-10-31T04:35:58;51409.16;;;-145.83;100.00
7730;BME280;3908;52.310;7.230;2022-10-31T04:38:45;51430.66;;;-145.83;100.00
7730;BME280;3908;52.310;7.230;2022-10-31T04:41:32;51438.50;;;-145.83;100.00
7730;BME280;3908;52.310;7.230;2022-10-31T04:44:18;51436.53;;;-145.83;100.00
7730;BME280;3908;52.310;7.230;2022-10-31T04:47:07;51475.66;;;-145.83;100.00
7730;BME280;3908;52.310;7.230;2022-10-31T04:49:54;51416.97;;;-145.83;100.00
7730;BME280;3908;52.310;7.230;2022-10-31T04:52:41;51432.63;;;-145.83;100.00
7730;BME280;3908;52.310;7.230;2022-10-31T04:55:28;51444.34;;;-145.83;100.00
7730;BME280;3908;52.310;7.230;2022-10-31T04:58:15;51424.78;;;-145.83;100.00
7730;BME280;3908;52.310;7.230;2022-10-31T05:01:02;51458.06;;;-145.83;100.00
7730;BME280;3908;52.310;7.230;2022-10-31T05:03:50;51444.34;;;-145.83;100.00
7730;BME280;3908;52.310;7.230;2022-10-31T05:06:37;51430.66;;;-145.83;100.00
7730;BME280;3908;52.310;7.230;2022-10-31T05:09:24;51383.72;;;-145.83;100.00
7730;BME280;3908;52.310;7.230;2022-10-31T05:12:11;51434.56;;;-145.83;100.00
7730;BME280;3908;52.310;7.230;2022-10-31T05:14:58;51418.94;;;-145.83;100.00
7730;BME280;3908;52.310;7.230;2022-10-31T05:17:45;51448.28;;;-145.83;100.00
7730;BME280;3908;52.310;7.230;2022-10-31T05:20:34;51424.78;;;-145.83;100.00
7730;BME280;3908;52.310;7.230;2022-10-31T05:23:20;51416.97;;;-145.83;100.00
7730;BME280;3908;52.310;7.230;2022-10-31T05:26:07;51368.06;;;-145.83;100.00
7730;BME280;3908;52.310;7.230;2022-10-31T05:28:54;51467.84;;;-145.83;100.00
7730;BME280;3908;52.310;7.230;2022-10-31T05:31:41;51438.50;;;-145.83;100.00
7730;BME280;3908;52.310;7.230;2022-10-31T05:34:28;51420.88;;;-145.83;100.00
7730;BME280;3908;52.310;7.230;2022-10-31T05:37:17;51450.22;;;-145.83;100.00
7730;BME280;3908;52.310;7.230;2022-10-31T05:40:05;51452.19;;;-145.83;100.00
7730;BME280;3908;52.310;7.230;2022-10-31T05:42:54;51452.19;;;-145.83;100.00
7730;BME280;3908;52.310;7.230;2022-10-31T05:45:41;51430.66;;;-145.83;100.00
7730;BME280;3908;52.310;7.230;2022-10-31T05:48:28;51424.78;;;-145.83;100.00
7730;BME280;3908;52.310;7.230;2022-10-31T05:51:15;51440.44;;;-145.83;100.00
7730;BME280;3908;52.310;7.230;2022-10-31T05:54:03;51371.97;;;-145.83;100.00
7730;BME280;3908;52.310;7.230;2022-10-31T05:56:50;51397.41;;;-145.83;100.00
7730;BME280;3908;52.310;7.230;2022-10-31T05:59:37;51430.66;;;-145.83;100.00
7730;BME280;3908;52.310;7.230;2022-10-31T06:02:24;51467.84;;;-145.83;100.00
7730;BME280;3908;52.310;7.230;2022-10-31T06:05:12;51446.31;;;-145.83;100.00
7730;BME280;3908;52.310;7.230;2022-10-31T06:07:59;51424.78;;;-145.83;100.00
7730;BME280;3908;52.310;7.230;2022-10-31T06:10:47;51416.97;;;-145.83;100.00
7730;BME280;3908;52.310;7.230;2022-10-31T06:13:34;51444.34;;;-145.83;100.00
7730;BME280;3908;52.310;7.230;2022-10-31T06:16:21;51395.44;;;-145.83;100.00
7730;BME280;3908;52.310;7.230;2022-10-31T06:19:08;51401.31;;;-145.83;100.00
7730;BME280;3908;52.310;7.230;2022-10-31T06:21:55;51366.09;;;-145.83;100.00
7730;BME280;3908;52.310;7.230;2022-10-31T06:24:42;51403.28;;;-145.83;100.00
7730;BME280;3908;52.310;7.230;2022-10-31T06:27:30;51461.97;;;-145.83;100.00
7730;BME280;3908;52.310;7.230;2022-10-31T06:30:17;51399.38;;;-145.83;100.00
7730;BME280;3908;52.310;7.230;2022-10-31T06:33:05;51436.53;;;-145.83;100.00
7730;BME280;3908;52.310;7.230;2022-10-31T06:35:52;51416.97;;;-145.83;100.00
7730;BME280;3908;52.310;7.230;2022-10-31T06:38:39;51452.19;;;-145.83;100.00
7730;BME280;3908;52.310;7.230;2022-10-31T06:41:26;51415.00;;;-145.83;100.00
7730;BME280;3908;52.310;7.230;2022-10-31T06:44:14;51416.97;;;-145.83;100.00
7730;BME280;3908;52.310;7.230;2022-10-31T06:47:01;51399.38;;;-145.83;100.00
7730;BME280;3908;52.310;7.230;2022-10-31T06:49:48;51403.28;;;-145.83;100.00
7730;BME280;3908;52.310;7.230;2022-10-31T06:52:35;51389.59;;;-145.83;100.00
7730;BME280;3908;52.310;7.230;2022-10-31T06:55:23;51407.19;;;-145.83;100.00
7730;BME280;3908;52.310;7.230;2022-10-31T06:58:10;51420.88;;;-145.83;100.00
7730;BME280;3908;52.310;7.230;2022-10-31T07:01:00;51385.66;;;-145.83;100.00
7730;BME280;3908;52.310;7.230;2022-10-31T07:03:47;51415.00;;;-145.83;100.00
7730;BME280;3908;52.310;7.230;2022-10-31T07:06:34;51434.56;;;-145.83;100.00
7730;BME280;3908;52.310;7.230;2022-10-31T07:09:21;51399.38;;;-145.83;100.00
7730;BME280;3908;52.310;7.230;2022-10-31T07:12:08;51440.44;;;-145.83;100.00
7730;BME280;3908;52.310;7.230;2022-10-31T07:14:55;51432.63;;;-145.83;100.00
7730;BME280;3908;52.310;7.230;2022-10-31T07:17:43;51397.41;;;-145.83;100.00
7730;BME280;3908;52.310;7.230;2022-10-31T07:20:31;51399.38;;;-145.83;100.00
7730;BME280;3908;52.310;7.230;2022-10-31T07:23:18;51409.16;;;-145.83;100.00
7730;BME280;3908;52.310;7.230;2022-10-31T07:26:05;51438.50;;;-145.83;100.00
7730;BME280;3908;52.310;7.230;2022-10-31T07:28:52;51383.72;;;-145.83;100.00
7730;BME280;3908;52.310;7.230;2022-10-31T07:31:39;51456.09;;;-145.83;100.00
7730;BME280;3908;52.310;7.230;2022-10-31T07:34:27;51430.66;;;-145.83;100.00
7730;BME280;3908;52.310;7.230;2022-10-31T07:37:14;51432.63;;;-145.83;100.00
7730;BME280;3908;52.310;7.230;2022-10-31T07:40:01;51413.06;;;-145.83;100.00
7730;BME280;3908;52.310;7.230;2022-10-31T07:42:50;51364.16;;;-145.83;100.00
7730;BME280;3908;52.310;7.230;2022-10-31T07:45:37;51442.41;;;-145.83;100.00
7730;BME280;3908;52.310;7.230;2022-10-31T07:48:24;51424.78;;;-145.83;100.00
7730;BME280;3908;52.310;7.230;2022-10-31T07:51:12;51430.66;;;-145.83;100.00
7730;BME280;3908;52.310;7.230;2022-10-31T07:53:59;51452.19;;;-145.83;100.00
7730;BME280;3908;52.310;7.230;2022-10-31T07:56:46;51473.69;;;-145.83;100.00
7730;BME280;3908;52.310;7.230;2022-10-31T07:59:33;51446.31;;;-145.83;100.00
7730;BME280;3908;52.310;7.230;2022-10-31T08:02:20;51420.88;;;-145.83;100.00
7730;BME280;3908;52.310;7.230;2022-10-31T08:05:08;51452.19;;;-145.83;100.00
7730;BME280;3908;52.310;7.230;2022-10-31T08:07:56;51442.41;;;-145.83;100.00
7730;BME280;3908;52.310;7.230;2022-10-31T08:10:44;51465.88;;;-145.83;100.00
7730;BME280;3908;52.310;7.230;2022-10-31T08:13:31;51446.31;;;-145.83;100.00
7730;BME280;3908;52.310;7.230;2022-10-31T08:16:18;51440.44;;;-145.83;100.00
7730;BME280;3908;52.310;7.230;2022-10-31T08:19:05;51481.53;;;-145.83;100.00
7730;BME280;3908;52.310;7.230;2022-10-31T08:21:52;51485.44;;;-145.83;100.00
7730;BME280;3908;52.310;7.230;2022-10-31T08:24:41;51465.88;;;-145.83;100.00
7730;BME280;3908;52.310;7.230;2022-10-31T08:27:28;51469.78;;;-145.83;100.00
7730;BME280;3908;52.310;7.230;2022-10-31T08:30:16;51426.75;;;-145.83;100.00
7730;BME280;3908;52.310;7.230;2022-10-31T08:33:04;51479.56;;;-145.83;100.00
7730;BME280;3908;52.310;7.230;2022-10-31T08:35:51;51450.22;;;-145.83;100.00
7730;BME280;3908;52.310;7.230;2022-10-31T08:38:38;51505.00;;;-145.83;100.00
7730;BME280;3908;52.310;7.230;2022-10-31T08:41:26;51475.66;;;-145.83;100.00
7730;BME280;3908;52.310;7.230;2022-10-31T08:44:13;51506.97;;;-145.83;100.00
7730;BME280;3908;52.310;7.230;2022-10-31T08:47:01;51499.13;;;-145.83;100.00
7730;BME280;3908;52.310;7.230;2022-10-31T08:49:48;51508.91;;;-145.83;100.00
7730;BME280;3908;52.310;7.230;2022-10-31T08:52:35;51524.56;;;-145.83;100.00
7730;BME280;3908;52.310;7.230;2022-10-31T08:55:22;51510.88;;;-145.83;100.00
7730;BME280;3908;52.310;7.230;2022-10-31T08:58:12;51483.47;;;-145.83;100.00
7730;BME280;3908;52.310;7.230;2022-10-31T09:01:00;51487.41;;;-145.83;100.00
7730;BME280;3908;52.310;7.230;2022-10-31T09:03:47;51465.88;;;-145.83;100.00
7730;BME280;3908;52.310;7.230;2022-10-31T09:06:34;51510.88;;;-145.83;100.00
7730;BME280;3908;52.310;7.230;2022-10-31T09:09:21;51516.75;;;-145.83;100.00
7730;BME280;3908;52.310;7.230;2022-10-31T09:12:08;51491.31;;;-145.83;100.00
7730;BME280;3908;52.310;7.230;2022-10-31T09:14:57;51528.47;;;-145.83;100.00
7730;BME280;3908;52.310;7.230;2022-10-31T09:17:46;51493.25;;;-145.83;100.00
7730;BME280;3908;52.310;7.230;2022-10-31T09:20:35;51524.56;;;-145.83;100.00
7730;BME280;3908;52.310;7.230;2022-10-31T09:23:22;51475.66;;;-145.83;100.00
7730;BME280;3908;52.310;7.230;2022-10-31T09:26:10;51524.56;;;-145.83;100.00
7730;BME280;3908;52.310;7.230;2022-10-31T09:28:57;51497.19;;;-145.83;100.00
7730;BME280;3908;52.310;7.230;2022-10-31T09:31:45;51520.66;;;-145.83;100.00
7730;BME280;3908;52.310;7.230;2022-10-31T09:34:32;51495.22;;;-145.83;100.00
7730;BME280;3908;52.310;7.230;2022-10-31T09:37:19;51508.91;;;-145.83;100.00
7730;BME280;3908;52.310;7.230;2022-10-31T09:40:07;51506.97;;;-145.83;100.00
7730;BME280;3908;52.310;7.230;2022-10-31T09:42:59;51526.53;;;-145.83;100.00
7730;BME280;3908;52.310;7.230;2022-10-31T09:45:57;51508.91;;;-145.83;100.00
7730;BME280;3908;52.310;7.230;2022-10-31T09:49:00;51534.34;;;-145.83;100.00
7730;BME280;3908;52.310;7.230;2022-10-31T09:51:53;51512.84;;;-145.83;100.00
7730;BME280;3908;52.310;7.230;2022-10-31T09:54:45;51528.47;;;-145.83;100.00
7730;BME280;3908;52.310;7.230;2022-10-31T09:57:35;51532.41;;;-145.83;100.00
7730;BME280;3908;52.310;7.230;2022-10-31T10:00:23;51526.53;;;-145.83;100.00
7730;BME280;3908;52.310;7.230;2022-10-31T10:03:13;51538.25;;;-145.83;100.00
7730;BME280;3908;52.310;7.230;2022-10-31T10:06:12;51534.34;;;-145.83;100.00
7730;BME280;3908;52.310;7.230;2022-10-31T10:09:01;51512.84;;;-145.83;100.00
7730;BME280;3908;52.310;7.230;2022-10-31T10:11:57;51518.69;;;-145.83;100.00
7730;BME280;3908;52.310;7.230;2022-10-31T10:14:54;51548.03;;;-145.83;99.61
7730;BME280;3908;52.310;7.230;2022-10-31T10:17:51;51522.63;;;-145.83;95.01
7730;BME280;3908;52.310;7.230;2022-10-31T10:20:57;51506.97;;;-145.83;89.95
7730;BME280;3908;52.310;7.230;2022-10-31T10:23:56;51505.00;;;-145.83;86.04
7730;BME280;3908;52.310;7.230;2022-10-31T10:26:52;51551.97;;;-145.83;84.92
7730;BME280;3908;52.310;7.230;2022-10-31T10:29:46;51546.09;;;-145.83;85.43
7730;BME280;3908;52.310;7.230;2022-10-31T10:32:40;51528.47;;;-145.83;84.48
7730;BME280;3908;52.310;7.230;2022-10-31T10:35:31;51499.13;;;-145.83;82.25
7730;BME280;3908;52.310;7.230;2022-10-31T10:38:24;51508.91;;;-145.83;82.14
7730;BME280;3908;52.310;7.230;2022-10-31T10:41:17;51505.00;;;-145.83;81.96
7730;BME280;3908;52.310;7.230;2022-10-31T10:44:08;51485.44;;;-145.83;81.69
7730;BME280;3908;52.310;7.230;2022-10-31T10:46:59;51518.69;;;-145.83;81.03
7730;BME280;3908;52.310;7.230;2022-10-31T10:50:08;51503.06;;;-145.83;80.19
7730;BME280;3908;52.310;7.230;2022-10-31T10:53:03;51530.44;;;-145.83;80.27
7730;BME280;3908;52.310;7.230;2022-10-31T10:55:58;51540.22;;;-145.83;80.26
7730;BME280;3908;52.310;7.230;2022-10-31T10:58:48;51559.78;;;-145.83;81.10
7730;BME280;3908;52.310;7.230;2022-10-31T11:01:35;51506.97;;;-145.83;81.29
7730;BME280;3908;52.310;7.230;2022-10-31T11:04:30;51503.06;;;-145.83;82.96
7730;BME280;3908;52.310;7.230;2022-10-31T11:07:18;51559.78;;;-145.83;82.58
7730;BME280;3908;52.310;7.230;2022-10-31T11:10:06;51526.53;;;-145.83;81.82
7730;BME280;3908;52.310;7.230;2022-10-31T11:13:04;51508.91;;;-145.83;83.41
7730;BME280;3908;52.310;7.230;2022-10-31T11:15:57;51532.41;;;-145.83;82.36
7730;BME280;3908;52.310;7.230;2022-10-31T11:18:46;51551.97;;;-145.83;84.43
7730;BME280;3908;52.310;7.230;2022-10-31T11:21:34;51544.13;;;-145.83;81.57
7730;BME280;3908;52.310;7.230;2022-10-31T11:24:22;51524.56;;;-145.83;81.18
7730;BME280;3908;52.310;7.230;2022-10-31T11:27:15;51510.88;;;-145.83;80.16
7730;BME280;3908;52.310;7.230;2022-10-31T11:30:06;51526.53;;;-145.83;82.15
7730;BME280;3908;52.310;7.230;2022-10-31T11:32:55;51512.84;;;-145.83;82.23
7730;BME280;3908;52.310;7.230;2022-10-31T11:35:43;51530.44;;;-145.83;81.64
7730;BME280;3908;52.310;7.230;2022-10-31T11:38:34;51514.78;;;-145.83;83.35
7730;BME280;3908;52.310;7.230;2022-10-31T11:41:28;51520.66;;;-145.83;81.54
7730;BME280;3908;52.310;7.230;2022-10-31T11:44:18;51532.41;;;-145.83;82.18
7730;BME280;3908;52.310;7.230;2022-10-31T11:47:06;51514.78;;;-145.83;82.30
7730;BME280;3908;52.310;7.230;2022-10-31T11:50:01;51546.09;;;-145.83;84.54
7730;BME280;3908;52.310;7.230;2022-10-31T11:52:50;51514.78;;;-145.83;82.86
7730;BME280;3908;52.310;7.230;2022-10-31T11:55:39;51551.97;;;-145.83;82.55
7730;BME280;3908;52.310;7.230;2022-10-31T11:58:26;51532.41;;;-145.83;82.74
7730;BME280;3908;52.310;7.230;2022-10-31T12:01:24;51518.69;;;-145.83;82.10
7730;BME280;3908;52.310;7.230;2022-10-31T12:04:12;51510.88;;;-145.83;83.46
7730;BME280;3908;52.310;7.230;2022-10-31T12:07:01;51534.34;;;-145.83;82.01
7730;BME280;3908;52.310;7.230;2022-10-31T12:09:48;51516.75;;;-145.83;83.41
7730;BME280;3908;52.310;7.230;2022-10-31T12:12:52;51497.19;;;-145.83;84.73
7730;BME280;3908;52.310;7.230;2022-10-31T12:15:50;51534.34;;;-145.83;85.62
7730;BME280;3908;52.310;7.230;2022-10-31T12:18:53;51491.31;;;-145.83;85.27
7730;BME280;3908;52.310;7.230;2022-10-31T12:21:57;51518.69;;;-145.83;85.90
7730;BME280;3908;52.310;7.230;2022-10-31T12:25:07;51505.00;;;-145.83;86.56
7730;BME280;3908;52.310;7.230;2022-10-31T12:28:04;51516.75;;;-145.83;88.06
7730;BME280;3908;52.310;7.230;2022-10-31T12:31:11;51565.66;;;-145.83;85.17
7730;BME280;3908;52.310;7.230;2022-10-31T12:34:25;51512.84;;;-145.83;85.57
7730;BME280;3908;52.310;7.230;2022-10-31T12:37:22;51532.41;;;-145.83;84.73
7730;BME280;3908;52.310;7.230;2022-10-31T12:40:34;51514.78;;;-145.83;84.64
7730;BME280;3908;52.310;7.230;2022-10-31T12:43:35;51524.56;;;-145.83;83.63
7730;BME280;3908;52.310;7.230;2022-10-31T12:49:48;51526.53;;;-145.83;85.46
7730;BME280;3908;52.310;7.230;2022-10-31T12:52:48;51536.31;;;-145.83;85.04
7730;BME280;3908;52.310;7.230;2022-10-31T12:55:52;51540.22;;;-145.83;86.41
7730;BME280;3908;52.310;7.230;2022-10-31T12:58:46;51514.78;;;-145.83;85.84
7730;BME280;3908;52.310;7.230;2022-10-31T13:01:36;51530.44;;;-145.83;86.10
7730;BME280;3908;52.310;7.230;2022-10-31T13:04:37;51528.47;;;-145.83;84.59
7730;BME280;3908;52.310;7.230;2022-10-31T13:07:29;51481.53;;;-145.83;85.36
7730;BME280;3908;52.310;7.230;2022-10-31T13:10:20;51526.53;;;-145.83;86.94
7730;BME280;3908;52.310;7.230;2022-10-31T13:13:19;51551.97;;;-145.83;84.91
7730;BME280;3908;52.310;7.230;2022-10-31T13:16:13;51559.78;;;-145.83;85.43
7730;BME280;3908;52.310;7.230;2022-10-31T13:19:05;51538.25;;;-145.83;85.81
7730;BME280;3908;52.310;7.230;2022-10-31T13:21:59;51518.69;;;-145.83;86.77
7730;BME280;3908;52.310;7.230;2022-10-31T13:24:55;51551.97;;;-145.83;87.83
7730;BME280;3908;52.310;7.230;2022-10-31T13:27:48;51546.09;;;-145.83;88.30
7730;BME280;3908;52.310;7.230;2022-10-31T13:30:40;51518.69;;;-145.83;87.76
7730;BME280;3908;52.310;7.230;2022-10-31T13:33:33;51528.47;;;-145.83;87.27
7730;BME280;3908;52.310;7.230;2022-10-31T13:36:29;51546.09;;;-145.83;86.41
7730;BME280;3908;52.310;7.230;2022-10-31T13:39:25;51522.63;;;-145.83;86.91
7730;BME280;3908;52.310;7.230;2022-10-31T13:42:21;51540.22;;;-145.83;86.11
7730;BME280;3908;52.310;7.230;2022-10-31T13:45:15;51544.13;;;-145.83;87.21
7730;BME280;3908;52.310;7.230;2022-10-31T13:48:33;51546.09;;;-145.83;85.82
7730;BME280;3908;52.310;7.230;2022-10-31T13:51:25;51524.56;;;-145.83;86.77
7730;BME280;3908;52.310;7.230;2022-10-31T13:54:21;51551.97;;;-145.83;85.94
7730;BME280;3908;52.310;7.230;2022-10-31T13:57:16;51518.69;;;-145.83;86.01
7730;BME280;3908;52.310;7.230;2022-10-31T14:00:06;51532.41;;;-145.83;85.38
7730;BME280;3908;52.310;7.230;2022-10-31T14:02:56;51524.56;;;-145.83;84.91
7730;BME280;3908;52.310;7.230;2022-10-31T14:05:51;51520.66;;;-145.83;86.31
7730;BME280;3908;52.310;7.230;2022-10-31T14:08:43;51495.22;;;-145.83;85.59
7730;BME280;3908;52.310;7.230;2022-10-31T14:11:35;51540.22;;;-145.83;86.01
7730;BME280;3908;52.310;7.230;2022-10-31T14:14:26;51530.44;;;-145.83;86.13
7730;BME280;3908;52.310;7.230;2022-10-31T14:17:20;51485.44;;;-145.83;86.05
7730;BME280;3908;52.310;7.230;2022-10-31T14:20:38;51526.53;;;-145.83;86.10
7730;BME280;3908;52.310;7.230;2022-10-31T14:23:36;51540.22;;;-145.83;86.04
7730;BME280;3908;52.310;7.230;2022-10-31T14:26:35;51532.41;;;-145.83;85.69
7730;BME280;3908;52.310;7.230;2022-10-31T14:29:26;51546.09;;;-145.83;87.23
7730;BME280;3908;52.310;7.230;2022-10-31T14:32:20;51512.84;;;-145.83;87.39
7730;BME280;3908;52.310;7.230;2022-10-31T14:35:13;51563.69;;;-145.83;88.71
7730;BME280;3908;52.310;7.230;2022-10-31T14:41:23;51534.34;;;-145.83;88.03
7730;BME280;3908;52.310;7.230;2022-10-31T14:47:31;51510.88;;;-145.83;89.50
7730;BME280;3908;52.310;7.230;2022-10-31T14:50:36;51536.31;;;-145.83;89.65
7730;BME280;3908;52.310;7.230;2022-10-31T14:53:29;51540.22;;;-145.83;90.06
7730;BME280;3908;52.310;7.230;2022-10-31T14:56:22;51524.56;;;-145.83;90.59
7730;BME280;3908;52.310;7.230;2022-10-31T14:59:14;51526.53;;;-145.83;90.58
7730;BME280;3908;52.310;7.230;2022-10-31T15:02:09;51514.78;;;-145.83;91.38
7730;BME280;3908;52.310;7.230;2022-10-31T15:04:59;51493.25;;;-145.83;90.72
7730;BME280;3908;52.310;7.230;2022-10-31T15:07:50;51530.44;;;-145.83;91.37